Weather reports worldwide

Advertisment
Ross-on-Wye, United Kingdom (99207): temperature & dewpoint: 06.11.2019 15:00:00 - 12.11.2019 15:00:00 (GMT)Ross-on-Wye, United Kingdom (99207): temperature -20cm: 06.11.2019 15:00:00 - 12.11.2019 15:00:00 (GMT)Ross-on-Wye, United Kingdom (99207): wind speed & gusts: 06.11.2019 15:00:00 - 12.11.2019 15:00:00 (GMT)Ross-on-Wye, United Kingdom (99207): wind direction: 06.11.2019 15:00:00 - 12.11.2019 15:00:00 (GMT)Ross-on-Wye, United Kingdom (99207): sunshine duration: 06.11.2019 15:00:00 - 12.11.2019 15:00:00 (GMT)Ross-on-Wye, United Kingdom (99207): precipitation: 06.11.2019 15:00:00 - 12.11.2019 15:00:00 (GMT)
Date & Time tt [°C] td [°C] tt -20cm [°C] ff [km/h] ff [kn] fx [km/h] fx [kn] dd sd [min] rr [mm]
12.11.2019 15:00:00 8,9 4,4 - 15 8 - - W 6 0,0
12.11.2019 14:00:00 8,0 4,2 - 15 8 - - WSW 0 0,0
12.11.2019 13:00:00 6,7 3,0 - 21 11 - - WSW 0 0,0
12.11.2019 12:00:00 7,0 3,1 - 22 12 46 25 WSW 0 0,2
12.11.2019 11:00:00 6,6 1,9 - 21 11 - - WSW 12 0,0
12.11.2019 10:00:00 6,7 1,2 - 28 15 - - WSW 18 0,0
12.11.2019 09:00:00 6,2 1,7 8,0 18 10 - - SW 30 0,0
12.11.2019 08:00:00 4,7 1,4 - 15 8 - - SW 0 0,0
12.11.2019 07:00:00 4,4 1,3 - 13 7 - - WSW 0 0,0
12.11.2019 06:00:00 4,3 1,6 - 15 8 - - WSW 0 0,0
12.11.2019 05:00:00 4,2 1,8 - 15 8 46 25 WSW 0 0,0
12.11.2019 04:00:00 4,9 1,4 - 13 7 - - WSW 0 0,0
12.11.2019 03:00:00 5,1 1,8 - 21 11 - - W 0 0,2
12.11.2019 02:00:00 5,0 1,6 - 15 8 - - W 0 0,0
12.11.2019 01:00:00 5,1 1,7 - 11 6 - - WSW 0 0,0
12.11.2019 00:00:00 5,1 2,0 - 13 7 - - SW - 0,0
11.11.2019 23:00:00 4,6 1,4 - 11 6 - - SW 0 0,0
11.11.2019 22:00:00 5,1 1,9 - 13 7 - - WSW 0 0,0
11.11.2019 21:00:00 5,9 1,8 - 13 7 - - WSW 0 0,0
11.11.2019 20:00:00 6,0 1,7 - 13 7 - - W 0 0,0
11.11.2019 19:00:00 6,4 1,7 - 16 9 - - W 0 0,0
11.11.2019 18:00:00 6,0 1,9 - 11 6 - - WSW 0 0,0
11.11.2019 17:00:00 6,5 1,5 - 15 8 - - WSW 0 0,0
11.11.2019 16:00:00 7,7 1,7 - 16 9 - - W 6 0,0
11.11.2019 15:00:00 8,3 2,0 - 22 12 - - W 18 0,0
11.11.2019 14:00:00 8,8 2,7 - 18 10 - - W 36 0,0
11.11.2019 13:00:00 8,8 2,9 - 18 10 - - W 24 0,0
11.11.2019 12:00:00 8,7 3,1 - 24 13 46 25 W 42 0,0
11.11.2019 11:00:00 7,6 3,5 - 13 7 - - W 6 0,0
11.11.2019 10:00:00 7,0 3,1 - 15 8 - - W 18 0,0
11.11.2019 09:00:00 6,2 3,4 8,4 15 8 - - W 0 0,0
11.11.2019 08:00:00 5,9 3,6 - 13 7 - - W 0 0,4
11.11.2019 07:00:00 5,9 3,3 - 13 7 - - W 0 0,0
11.11.2019 06:00:00 5,5 3,6 - 13 7 - - WSW 0 0,0
11.11.2019 05:00:00 4,7 3,2 - 11 6 - - WSW 0 0,0
11.11.2019 04:00:00 5,2 3,2 - 9 5 - - WNW 0 0,8
11.11.2019 03:00:00 7,3 6,2 - 15 8 - - SSW 0 0,0
11.11.2019 02:00:00 7,3 6,2 - 13 7 - - SSW 0 0,2
11.11.2019 01:00:00 6,9 6,0 - 13 7 - - SSW 0 0,2
11.11.2019 00:00:00 5,9 4,9 - 9 5 - - SSW - 0,4
10.11.2019 23:00:00 5,7 4,8 - 8 4 - - SSW 0 0,6
10.11.2019 22:00:00 4,8 3,9 - 4 2 - - S 0 0,2
10.11.2019 21:00:00 4,3 3,4 - 4 2 - - S 0 0,0
10.11.2019 20:00:00 4,7 3,6 - 4 2 - - SW 0 0,0
10.11.2019 19:00:00 4,6 3,2 - 5 3 - - WNW 0 0,0
10.11.2019 18:00:00 4,7 3,4 - 5 3 - - E 0 0,0
10.11.2019 17:00:00 4,7 3,0 - 2 1 - - SSE 0 0,0
10.11.2019 16:00:00 6,2 2,9 - 4 2 - - SE 18 0,0
10.11.2019 15:00:00 8,3 3,2 - 4 2 - - NE 60 0,0
10.11.2019 14:00:00 8,1 3,1 - 5 3 - - NE 54 0,0
10.11.2019 13:00:00 7,4 3,1 - 9 5 - - NE 48 0,0
10.11.2019 12:00:00 6,8 3,0 - 5 3 - - N 30 0,0
10.11.2019 11:00:00 6,1 2,8 - 4 2 - - N 6 0,0
10.11.2019 10:00:00 4,2 1,7 - 5 3 - - N 0 0,0
10.11.2019 09:00:00 4,0 1,5 8,2 8 4 - - N 0 0,0
10.11.2019 08:00:00 3,8 1,2 - 5 3 - - N 0 0,0
10.11.2019 07:00:00 4,5 1,9 - 13 7 - - NE 0 0,0
10.11.2019 06:00:00 4,6 2,3 - 13 7 - - NNE 0 0,0
10.11.2019 05:00:00 4,7 3,1 - 18 10 - - NE 0 0,0
10.11.2019 04:00:00 4,7 3,7 - 22 12 - - NNE 0 0,2
10.11.2019 03:00:00 4,4 3,7 - 22 12 - - NNE 0 2,6
10.11.2019 02:00:00 4,1 3,3 - 21 11 - - NNE 0 2,4
10.11.2019 01:00:00 4,1 3,4 - 16 9 - - NNE 0 1,8
10.11.2019 00:00:00 4,5 3,7 - 15 8 - - NNE - 0,2
09.11.2019 23:00:00 4,7 4,2 - 11 6 - - NNE 0 0,0
09.11.2019 22:00:00 4,7 4,2 - 5 3 - - N 0 0,0
09.11.2019 21:00:00 4,7 4,2 - 5 3 - - N 0 0,0
09.11.2019 20:00:00 4,8 4,3 - 5 3 - - NNE 0 0,0
09.11.2019 19:00:00 4,8 4,4 - 2 1 - - NNE 0 0,0
09.11.2019 18:00:00 4,9 4,4 - 4 2 - - ENE 0 0,0
09.11.2019 17:00:00 5,2 4,4 - 4 2 - - ENE 0 0,0
09.11.2019 16:00:00 5,4 4,6 - 5 3 - - NE 0 0,0
09.11.2019 15:00:00 5,6 4,9 - 4 2 - - ESE 0 0,0
09.11.2019 14:00:00 5,0 4,5 - 4 2 - - NE 0 0,0
09.11.2019 13:00:00 4,3 3,6 - 5 3 - - E 0 0,2
09.11.2019 12:00:00 4,2 3,5 - 8 4 - - ESE 0 0,4
09.11.2019 11:00:00 3,5 2,5 - 8 4 - - SE 0 1,2
09.11.2019 10:00:00 3,6 2,4 - 15 8 - - ESE 0 1,0
09.11.2019 09:00:00 2,5 1,7 8,4 5 3 - - E 0 0,2
09.11.2019 08:00:00 -0,6 -0,7 - 4 2 - - SSE 0 0,0
09.11.2019 07:00:00 -1,6 -1,7 - 2 1 - - NE 0 0,0
09.11.2019 06:00:00 -1,7 -2,0 - 4 2 - - ENE 0 0,0
09.11.2019 05:00:00 -1,6 -1,9 - 2 1 - - E 0 0,0
09.11.2019 04:00:00 -1,8 -2,3 - 0 0 - - N 0 0,0
09.11.2019 03:00:00 -1,0 -1,4 - 2 1 - - WSW 0 0,0
09.11.2019 02:00:00 -0,5 -1,3 - 2 1 - - ENE 0 0,0
09.11.2019 01:00:00 0,4 -0,9 - 5 3 - - S 0 0,0
09.11.2019 00:00:00 1,6 -0,2 - 5 3 - - SSW - 0,0
08.11.2019 23:00:00 1,8 -0,5 - 2 1 - - ENE 0 0,0
08.11.2019 22:00:00 3,2 -0,5 - 8 4 - - WSW 0 0,0
08.11.2019 21:00:00 3,2 -0,4 - 5 3 - - SSW 0 0,0
08.11.2019 20:00:00 4,7 -0,5 - 4 2 - - WSW 0 0,0
08.11.2019 19:00:00 4,5 -0,7 - 5 3 - - SW 0 0,0
08.11.2019 18:00:00 4,7 -0,6 - 4 2 - - N 0 0,0
08.11.2019 17:00:00 5,9 2,1 - 2 1 - - SSE 18 0,0
08.11.2019 16:00:00 7,6 1,5 - 8 4 - - N 48 0,0
08.11.2019 15:00:00 9,1 2,6 - 5 3 - - NNW 60 0,0
08.11.2019 14:00:00 8,8 3,0 - 11 6 - - N 48 0,0
08.11.2019 13:00:00 8,4 3,0 - 13 7 - - N 54 0,0
08.11.2019 12:00:00 7,6 3,2 - 11 6 - - N 54 0,0
08.11.2019 11:00:00 7,1 3,3 - 13 7 - - N 48 0,0
08.11.2019 10:00:00 6,9 3,3 - 13 7 - - N 54 0,0
08.11.2019 09:00:00 5,9 3,9 9,2 13 7 - - N 6 0,0
08.11.2019 08:00:00 5,6 4,2 - 9 5 - - N 0 0,0
08.11.2019 07:00:00 6,3 5,0 - 15 8 - - N 0 0,2
08.11.2019 06:00:00 6,3 5,3 - 15 8 - - N 0 0,8
08.11.2019 05:00:00 6,3 5,4 - 11 6 - - N 0 0,0
08.11.2019 04:00:00 6,2 5,7 - 9 5 - - N 0 0,2
08.11.2019 03:00:00 5,5 5,1 - 5 3 - - N 0 0,2
08.11.2019 02:00:00 5,3 4,8 - 4 2 - - WNW 0 0,0
08.11.2019 01:00:00 4,7 4,0 - 5 3 - - SW 0 0,0
08.11.2019 00:00:00 4,0 3,4 - 4 2 - - SW - 0,0
07.11.2019 23:00:00 3,5 3,0 - 8 4 - - SW 0 0,0
07.11.2019 22:00:00 3,5 3,1 - 4 2 - - SSW 0 0,0
07.11.2019 21:00:00 3,1 2,3 - 4 2 - - NW 0 0,0
07.11.2019 20:00:00 4,2 3,2 - 5 3 - - SW 0 0,0
07.11.2019 19:00:00 5,0 3,4 - 8 4 - - SW 0 0,0
07.11.2019 18:00:00 5,9 3,8 - 9 5 - - SSW 0 0,0
07.11.2019 17:00:00 6,3 3,6 - 8 4 - - SSW 12 0,0
07.11.2019 16:00:00 7,9 3,8 - 8 4 - - SW 60 0,0
07.11.2019 15:00:00 9,3 4,2 - 11 6 - - SW 54 0,0
07.11.2019 14:00:00 9,4 4,4 - 15 8 - - SW 54 0,0
07.11.2019 13:00:00 9,7 4,9 - 11 6 - - SW 36 0,0
07.11.2019 12:00:00 8,2 4,1 - 15 8 - - SW 54 0,0
07.11.2019 11:00:00 8,6 4,5 - 13 7 - - SW 60 0,0
07.11.2019 10:00:00 7,6 4,1 - 9 5 - - SW 60 0,0
07.11.2019 09:00:00 6,0 3,9 9,9 9 5 - - SW 36 0,0
07.11.2019 08:00:00 4,8 3,4 - 8 4 - - SSW 0 0,0
07.11.2019 07:00:00 4,6 3,7 - 8 4 - - SW 0 0,0
07.11.2019 06:00:00 5,2 4,2 - 8 4 - - SW 0 0,0
07.11.2019 05:00:00 6,0 4,7 - 5 3 - - WSW 0 0,0
07.11.2019 04:00:00 6,7 6,0 - 5 3 - - WSW 0 0,2
07.11.2019 03:00:00 7,1 6,1 - 5 3 - - SW 0 0,4
07.11.2019 02:00:00 7,3 5,8 - 5 3 - - S 0 0,0
07.11.2019 01:00:00 7,4 6,1 - 5 3 - - SSE 0 0,0
07.11.2019 00:00:00 7,4 6,1 - 11 6 - - SE - 0,2
06.11.2019 23:00:00 7,6 6,5 - 9 5 - - SE 0 0,0
06.11.2019 22:00:00 7,5 6,6 - 8 4 - - ESE 0 0,0
06.11.2019 21:00:00 7,6 6,8 - 11 6 - - SE 0 0,2
06.11.2019 20:00:00 7,8 7,0 - 9 5 - - ESE 0 0,6
06.11.2019 19:00:00 7,6 6,9 - 5 3 - - SE 0 0,0
06.11.2019 18:00:00 7,6 6,9 - 4 2 - - SSE 0 0,0
06.11.2019 17:00:00 7,6 7,0 - 4 2 - - SE 0 0,6
06.11.2019 16:00:00 7,8 6,9 - 4 2 - - SW 0 1,0
06.11.2019 15:00:00 8,1 6,5 - 5 3 - - SSW 0 0,2

tt = temperature
td = dewpoint
tt -20cm = temperature -20cm
ff = wind speed
fx = gusts
dd = wind direction
sd = sunshine duration
rr = precipitation

Next stations